sensor_id;sensor_type;location;lat;lon;timestamp;P1;durP1;ratioP1;P2;durP2;ratioP2
52188;SDS011;38162;45.926;13.608;2023-05-07T00:01:13;14.10;;;8.18;;
52188;SDS011;38162;45.926;13.608;2023-05-07T00:03:39;13.35;;;8.18;;
52188;SDS011;38162;45.926;13.608;2023-05-07T00:06:05;23.13;;;8.95;;
52188;SDS011;38162;45.926;13.608;2023-05-07T00:08:31;12.52;;;7.68;;
52188;SDS011;38162;45.926;13.608;2023-05-07T00:10:56;10.77;;;6.85;;
52188;SDS011;38162;45.926;13.608;2023-05-07T00:13:22;13.95;;;7.88;;
52188;SDS011;38162;45.926;13.608;2023-05-07T00:15:48;12.23;;;7.55;;
52188;SDS011;38162;45.926;13.608;2023-05-07T00:18:13;7.88;;;6.53;;
52188;SDS011;38162;45.926;13.608;2023-05-07T00:20:39;12.35;;;7.80;;
52188;SDS011;38162;45.926;13.608;2023-05-07T00:23:05;9.85;;;7.82;;
52188;SDS011;38162;45.926;13.608;2023-05-07T00:25:31;10.05;;;7.45;;
52188;SDS011;38162;45.926;13.608;2023-05-07T00:27:56;7.97;;;7.18;;
52188;SDS011;38162;45.926;13.608;2023-05-07T00:30:27;9.38;;;7.15;;
52188;SDS011;38162;45.926;13.608;2023-05-07T00:32:53;8.65;;;7.20;;
52188;SDS011;38162;45.926;13.608;2023-05-07T00:35:19;9.55;;;7.35;;
52188;SDS011;38162;45.926;13.608;2023-05-07T00:37:45;10.25;;;7.20;;
52188;SDS011;38162;45.926;13.608;2023-05-07T00:40:10;7.78;;;6.80;;
52188;SDS011;38162;45.926;13.608;2023-05-07T00:42:36;10.73;;;7.85;;
52188;SDS011;38162;45.926;13.608;2023-05-07T00:45:03;7.78;;;6.75;;
52188;SDS011;38162;45.926;13.608;2023-05-07T00:47:29;9.52;;;7.53;;
52188;SDS011;38162;45.926;13.608;2023-05-07T00:53:19;8.95;;;7.40;;
52188;SDS011;38162;45.926;13.608;2023-05-07T01:03:02;9.80;;;7.20;;
52188;SDS011;38162;45.926;13.608;2023-05-07T01:12:19;9.52;;;8.35;;
52188;SDS011;38162;45.926;13.608;2023-05-07T01:14:58;8.05;;;7.10;;
52188;SDS011;38162;45.926;13.608;2023-05-07T01:17:40;11.90;;;6.88;;
52188;SDS011;38162;45.926;13.608;2023-05-07T01:20:07;9.63;;;6.95;;
52188;SDS011;38162;45.926;13.608;2023-05-07T01:22:35;8.73;;;6.72;;
52188;SDS011;38162;45.926;13.608;2023-05-07T01:25:03;10.32;;;7.40;;
52188;SDS011;38162;45.926;13.608;2023-05-07T01:27:30;10.30;;;6.88;;
52188;SDS011;38162;45.926;13.608;2023-05-07T01:29:56;8.63;;;7.22;;
52188;SDS011;38162;45.926;13.608;2023-05-07T01:35:40;11.90;;;7.47;;
52188;SDS011;38162;45.926;13.608;2023-05-07T01:38:09;9.55;;;6.93;;
52188;SDS011;38162;45.926;13.608;2023-05-07T01:40:35;7.10;;;6.40;;
52188;SDS011;38162;45.926;13.608;2023-05-07T01:43:01;8.48;;;6.65;;
52188;SDS011;38162;45.926;13.608;2023-05-07T01:45:27;11.98;;;6.78;;
52188;SDS011;38162;45.926;13.608;2023-05-07T01:47:56;9.45;;;7.13;;
52188;SDS011;38162;45.926;13.608;2023-05-07T01:50:23;7.63;;;6.40;;
52188;SDS011;38162;45.926;13.608;2023-05-07T01:52:51;18.80;;;6.88;;
52188;SDS011;38162;45.926;13.608;2023-05-07T01:55:17;9.13;;;5.82;;
52188;SDS011;38162;45.926;13.608;2023-05-07T01:57:43;9.23;;;6.30;;
52188;SDS011;38162;45.926;13.608;2023-05-07T02:00:09;6.93;;;6.22;;
52188;SDS011;38162;45.926;13.608;2023-05-07T02:02:35;6.70;;;5.97;;
52188;SDS011;38162;45.926;13.608;2023-05-07T02:05:01;7.75;;;5.90;;
52188;SDS011;38162;45.926;13.608;2023-05-07T02:07:27;7.32;;;6.05;;
52188;SDS011;38162;45.926;13.608;2023-05-07T02:09:53;8.95;;;6.10;;
52188;SDS011;38162;45.926;13.608;2023-05-07T02:12:20;10.65;;;6.32;;
52188;SDS011;38162;45.926;13.608;2023-05-07T02:14:46;8.30;;;5.50;;
52188;SDS011;38162;45.926;13.608;2023-05-07T02:17:12;6.35;;;5.75;;
52188;SDS011;38162;45.926;13.608;2023-05-07T02:19:38;6.25;;;5.65;;
52188;SDS011;38162;45.926;13.608;2023-05-07T02:22:04;9.00;;;6.00;;
52188;SDS011;38162;45.926;13.608;2023-05-07T02:24:30;6.22;;;5.63;;
52188;SDS011;38162;45.926;13.608;2023-05-07T02:26:56;7.18;;;5.57;;
52188;SDS011;38162;45.926;13.608;2023-05-07T02:42:50;13.13;;;5.93;;
52188;SDS011;38162;45.926;13.608;2023-05-07T02:45:15;15.38;;;6.22;;
52188;SDS011;38162;45.926;13.608;2023-05-07T02:47:41;11.95;;;5.57;;
52188;SDS011;38162;45.926;13.608;2023-05-07T02:50:07;7.38;;;5.60;;
52188;SDS011;38162;45.926;13.608;2023-05-07T02:52:33;8.20;;;5.07;;
52188;SDS011;38162;45.926;13.608;2023-05-07T02:54:59;8.63;;;5.40;;
52188;SDS011;38162;45.926;13.608;2023-05-07T02:57:24;6.18;;;5.15;;
52188;SDS011;38162;45.926;13.608;2023-05-07T02:59:50;7.65;;;5.82;;
52188;SDS011;38162;45.926;13.608;2023-05-07T03:02:16;10.38;;;6.32;;
52188;SDS011;38162;45.926;13.608;2023-05-07T03:04:42;9.02;;;6.30;;
52188;SDS011;38162;45.926;13.608;2023-05-07T03:07:08;9.10;;;6.00;;
52188;SDS011;38162;45.926;13.608;2023-05-07T03:09:34;7.90;;;6.07;;
52188;SDS011;38162;45.926;13.608;2023-05-07T03:12:00;10.55;;;6.50;;
52188;SDS011;38162;45.926;13.608;2023-05-07T03:14:26;11.07;;;6.47;;
52188;SDS011;38162;45.926;13.608;2023-05-07T03:16:52;10.32;;;6.75;;
52188;SDS011;38162;45.926;13.608;2023-05-07T03:19:18;8.45;;;6.80;;
52188;SDS011;38162;45.926;13.608;2023-05-07T03:21:44;10.18;;;6.38;;
52188;SDS011;38162;45.926;13.608;2023-05-07T03:24:16;8.60;;;5.95;;
52188;SDS011;38162;45.926;13.608;2023-05-07T03:26:54;8.35;;;6.15;;
52188;SDS011;38162;45.926;13.608;2023-05-07T03:30:24;10.93;;;6.07;;
52188;SDS011;38162;45.926;13.608;2023-05-07T03:37:15;10.65;;;6.50;;
52188;SDS011;38162;45.926;13.608;2023-05-07T03:39:18;10.50;;;6.30;;
52188;SDS011;38162;45.926;13.608;2023-05-07T03:41:57;8.02;;;6.20;;
52188;SDS011;38162;45.926;13.608;2023-05-07T03:48:00;7.47;;;6.00;;
52188;SDS011;38162;45.926;13.608;2023-05-07T03:50:26;12.77;;;6.22;;
52188;SDS011;38162;45.926;13.608;2023-05-07T03:52:52;9.20;;;6.28;;
52188;SDS011;38162;45.926;13.608;2023-05-07T03:55:18;7.18;;;5.55;;
52188;SDS011;38162;45.926;13.608;2023-05-07T03:57:44;9.68;;;5.75;;
52188;SDS011;38162;45.926;13.608;2023-05-07T04:00:10;10.50;;;5.88;;
52188;SDS011;38162;45.926;13.608;2023-05-07T04:02:37;9.50;;;6.25;;
52188;SDS011;38162;45.926;13.608;2023-05-07T04:05:02;8.02;;;5.65;;
52188;SDS011;38162;45.926;13.608;2023-05-07T04:07:28;7.35;;;5.88;;
52188;SDS011;38162;45.926;13.608;2023-05-07T04:09:54;7.05;;;6.35;;
52188;SDS011;38162;45.926;13.608;2023-05-07T04:12:20;8.05;;;7.22;;
52188;SDS011;38162;45.926;13.608;2023-05-07T04:14:45;8.15;;;7.28;;
52188;SDS011;38162;45.926;13.608;2023-05-07T04:17:11;11.27;;;7.63;;
52188;SDS011;38162;45.926;13.608;2023-05-07T04:19:37;14.88;;;7.45;;
52188;SDS011;38162;45.926;13.608;2023-05-07T04:22:03;12.38;;;7.07;;
52188;SDS011;38162;45.926;13.608;2023-05-07T04:24:31;10.55;;;7.05;;
52188;SDS011;38162;45.926;13.608;2023-05-07T04:26:58;8.57;;;7.13;;
52188;SDS011;38162;45.926;13.608;2023-05-07T04:29:23;10.88;;;7.13;;
52188;SDS011;38162;45.926;13.608;2023-05-07T04:31:49;8.98;;;7.22;;
52188;SDS011;38162;45.926;13.608;2023-05-07T04:34:15;9.10;;;6.65;;
52188;SDS011;38162;45.926;13.608;2023-05-07T04:36:41;8.90;;;6.65;;
52188;SDS011;38162;45.926;13.608;2023-05-07T04:39:07;11.57;;;6.18;;
52188;SDS011;38162;45.926;13.608;2023-05-07T04:41:35;7.93;;;6.03;;
52188;SDS011;38162;45.926;13.608;2023-05-07T04:44:01;9.65;;;5.57;;
52188;SDS011;38162;45.926;13.608;2023-05-07T04:46:29;12.10;;;5.80;;
52188;SDS011;38162;45.926;13.608;2023-05-07T04:48:55;7.22;;;5.57;;
52188;SDS011;38162;45.926;13.608;2023-05-07T04:51:21;8.10;;;5.70;;
52188;SDS011;38162;45.926;13.608;2023-05-07T04:53:47;6.50;;;5.18;;
52188;SDS011;38162;45.926;13.608;2023-05-07T04:56:13;6.25;;;5.50;;
52188;SDS011;38162;45.926;13.608;2023-05-07T04:58:40;9.45;;;5.47;;
52188;SDS011;38162;45.926;13.608;2023-05-07T05:01:06;6.00;;;5.40;;
52188;SDS011;38162;45.926;13.608;2023-05-07T05:06:51;8.70;;;5.45;;
52188;SDS011;38162;45.926;13.608;2023-05-07T05:10:24;9.57;;;5.53;;
52188;SDS011;38162;45.926;13.608;2023-05-07T05:12:56;7.28;;;5.32;;
52188;SDS011;38162;45.926;13.608;2023-05-07T05:18:45;8.00;;;5.65;;
52188;SDS011;38162;45.926;13.608;2023-05-07T05:21:32;8.52;;;5.70;;
52188;SDS011;38162;45.926;13.608;2023-05-07T05:27:20;12.40;;;5.95;;
52188;SDS011;38162;45.926;13.608;2023-05-07T05:29:46;7.32;;;4.65;;
52188;SDS011;38162;45.926;13.608;2023-05-07T05:32:12;4.72;;;4.05;;
52188;SDS011;38162;45.926;13.608;2023-05-07T05:34:38;5.43;;;3.65;;
52188;SDS011;38162;45.926;13.608;2023-05-07T05:37:04;7.35;;;3.47;;
52188;SDS011;38162;45.926;13.608;2023-05-07T05:39:30;5.22;;;3.22;;
52188;SDS011;38162;45.926;13.608;2023-05-07T05:41:56;7.53;;;3.42;;
52188;SDS011;38162;45.926;13.608;2023-05-07T05:44:22;4.70;;;3.20;;
52188;SDS011;38162;45.926;13.608;2023-05-07T05:46:47;6.97;;;3.10;;
52188;SDS011;38162;45.926;13.608;2023-05-07T05:49:14;6.45;;;3.35;;
52188;SDS011;38162;45.926;13.608;2023-05-07T05:51:40;6.05;;;3.13;;
52188;SDS011;38162;45.926;13.608;2023-05-07T05:54:06;6.90;;;5.35;;
52188;SDS011;38162;45.926;13.608;2023-05-07T05:56:32;8.70;;;5.25;;
52188;SDS011;38162;45.926;13.608;2023-05-07T05:58:58;6.85;;;5.18;;
52188;SDS011;38162;45.926;13.608;2023-05-07T06:01:24;6.80;;;5.72;;
52188;SDS011;38162;45.926;13.608;2023-05-07T06:03:50;7.10;;;5.45;;
52188;SDS011;38162;45.926;13.608;2023-05-07T06:06:15;5.72;;;5.13;;
52188;SDS011;38162;45.926;13.608;2023-05-07T06:08:41;10.98;;;4.90;;
52188;SDS011;38162;45.926;13.608;2023-05-07T06:11:07;6.55;;;4.90;;
52188;SDS011;38162;45.926;13.608;2023-05-07T06:13:33;7.43;;;4.55;;
52188;SDS011;38162;45.926;13.608;2023-05-07T06:15:59;10.77;;;4.47;;
52188;SDS011;38162;45.926;13.608;2023-05-07T06:18:25;5.88;;;4.40;;
52188;SDS011;38162;45.926;13.608;2023-05-07T06:20:51;5.97;;;4.40;;
52188;SDS011;38162;45.926;13.608;2023-05-07T06:23:18;5.82;;;4.15;;
52188;SDS011;38162;45.926;13.608;2023-05-07T06:25:50;6.97;;;4.93;;
52188;SDS011;38162;45.926;13.608;2023-05-07T06:28:16;5.63;;;4.70;;
52188;SDS011;38162;45.926;13.608;2023-05-07T06:30:42;5.20;;;4.10;;
52188;SDS011;38162;45.926;13.608;2023-05-07T06:33:08;6.28;;;4.13;;
52188;SDS011;38162;45.926;13.608;2023-05-07T06:35:34;8.63;;;3.90;;
52188;SDS011;38162;45.926;13.608;2023-05-07T06:38:00;4.80;;;3.70;;
52188;SDS011;38162;45.926;13.608;2023-05-07T06:40:26;6.05;;;4.38;;
52188;SDS011;38162;45.926;13.608;2023-05-07T06:42:52;8.95;;;4.15;;
52188;SDS011;38162;45.926;13.608;2023-05-07T06:51:59;5.72;;;3.90;;
52188;SDS011;38162;45.926;13.608;2023-05-07T06:54:37;5.63;;;4.10;;
52188;SDS011;38162;45.926;13.608;2023-05-07T06:57:18;7.22;;;3.80;;
52188;SDS011;38162;45.926;13.608;2023-05-07T07:00:00;5.25;;;3.88;;
52188;SDS011;38162;45.926;13.608;2023-05-07T07:03:08;5.88;;;3.90;;
52188;SDS011;38162;45.926;13.608;2023-05-07T07:05:37;4.60;;;3.75;;
52188;SDS011;38162;45.926;13.608;2023-05-07T07:08:03;5.72;;;4.18;;
52188;SDS011;38162;45.926;13.608;2023-05-07T07:10:29;5.88;;;3.88;;
52188;SDS011;38162;45.926;13.608;2023-05-07T07:12:55;8.98;;;4.13;;
52188;SDS011;38162;45.926;13.608;2023-05-07T07:15:21;7.35;;;3.75;;
52188;SDS011;38162;45.926;13.608;2023-05-07T07:17:47;5.63;;;3.60;;
52188;SDS011;38162;45.926;13.608;2023-05-07T07:20:14;8.18;;;3.28;;
52188;SDS011;38162;45.926;13.608;2023-05-07T07:22:39;5.82;;;3.22;;
52188;SDS011;38162;45.926;13.608;2023-05-07T07:25:05;5.53;;;3.42;;
52188;SDS011;38162;45.926;13.608;2023-05-07T07:27:31;4.72;;;3.25;;
52188;SDS011;38162;45.926;13.608;2023-05-07T07:29:57;7.70;;;2.97;;
52188;SDS011;38162;45.926;13.608;2023-05-07T07:32:23;3.20;;;2.60;;
52188;SDS011;38162;45.926;13.608;2023-05-07T07:34:48;5.65;;;3.22;;
52188;SDS011;38162;45.926;13.608;2023-05-07T07:37:14;3.85;;;2.88;;
52188;SDS011;38162;45.926;13.608;2023-05-07T07:39:40;5.15;;;3.72;;
52188;SDS011;38162;45.926;13.608;2023-05-07T07:42:06;7.65;;;3.67;;
52188;SDS011;38162;45.926;13.608;2023-05-07T07:44:32;5.50;;;3.55;;
52188;SDS011;38162;45.926;13.608;2023-05-07T07:46:57;10.93;;;3.47;;
52188;SDS011;38162;45.926;13.608;2023-05-07T07:49:23;6.88;;;3.70;;
52188;SDS011;38162;45.926;13.608;2023-05-07T07:51:49;8.32;;;3.47;;
52188;SDS011;38162;45.926;13.608;2023-05-07T07:54:16;4.25;;;3.38;;
52188;SDS011;38162;45.926;13.608;2023-05-07T07:56:41;5.20;;;3.38;;
52188;SDS011;38162;45.926;13.608;2023-05-07T07:59:07;4.47;;;3.53;;
52188;SDS011;38162;45.926;13.608;2023-05-07T08:01:33;7.10;;;3.83;;
52188;SDS011;38162;45.926;13.608;2023-05-07T08:03:59;7.80;;;3.42;;
52188;SDS011;38162;45.926;13.608;2023-05-07T08:06:25;6.88;;;3.90;;
52188;SDS011;38162;45.926;13.608;2023-05-07T08:08:51;4.90;;;3.40;;
52188;SDS011;38162;45.926;13.608;2023-05-07T08:11:17;4.13;;;3.50;;
52188;SDS011;38162;45.926;13.608;2023-05-07T08:13:43;5.63;;;3.53;;
52188;SDS011;38162;45.926;13.608;2023-05-07T08:16:10;4.97;;;3.80;;
52188;SDS011;38162;45.926;13.608;2023-05-07T08:18:36;3.95;;;3.53;;
52188;SDS011;38162;45.926;13.608;2023-05-07T08:21:02;6.78;;;4.13;;
52188;SDS011;38162;45.926;13.608;2023-05-07T08:23:27;7.43;;;3.80;;
52188;SDS011;38162;45.926;13.608;2023-05-07T08:25:53;7.90;;;3.35;;
52188;SDS011;38162;45.926;13.608;2023-05-07T08:28:19;6.60;;;3.70;;
52188;SDS011;38162;45.926;13.608;2023-05-07T08:30:52;7.60;;;3.40;;
52188;SDS011;38162;45.926;13.608;2023-05-07T08:33:36;4.53;;;3.50;;
52188;SDS011;38162;45.926;13.608;2023-05-07T08:36:34;4.95;;;3.25;;
52188;SDS011;38162;45.926;13.608;2023-05-07T08:39:02;5.95;;;3.13;;
52188;SDS011;38162;45.926;13.608;2023-05-07T08:41:35;3.20;;;2.90;;
52188;SDS011;38162;45.926;13.608;2023-05-07T08:46:39;5.40;;;2.75;;
52188;SDS011;38162;45.926;13.608;2023-05-07T08:49:36;6.63;;;2.70;;
52188;SDS011;38162;45.926;13.608;2023-05-07T08:52:02;2.90;;;2.40;;
52188;SDS011;38162;45.926;13.608;2023-05-07T08:54:43;8.50;;;2.15;;
52188;SDS011;38162;45.926;13.608;2023-05-07T08:59:38;3.78;;;2.10;;
52188;SDS011;38162;45.926;13.608;2023-05-07T09:02:05;3.80;;;2.50;;
52188;SDS011;38162;45.926;13.608;2023-05-07T09:04:35;6.28;;;2.60;;
52188;SDS011;38162;45.926;13.608;2023-05-07T09:07:01;5.60;;;2.47;;
52188;SDS011;38162;45.926;13.608;2023-05-07T09:09:31;2.67;;;2.47;;
52188;SDS011;38162;45.926;13.608;2023-05-07T09:11:57;4.88;;;2.72;;
52188;SDS011;38162;45.926;13.608;2023-05-07T09:14:27;4.78;;;2.35;;
52188;SDS011;38162;45.926;13.608;2023-05-07T09:16:53;2.33;;;2.13;;
52188;SDS011;38162;45.926;13.608;2023-05-07T09:19:26;3.15;;;2.50;;
52188;SDS011;38162;45.926;13.608;2023-05-07T09:21:58;8.05;;;2.72;;
52188;SDS011;38162;45.926;13.608;2023-05-07T09:24:26;4.10;;;2.30;;
52188;SDS011;38162;45.926;13.608;2023-05-07T09:26:53;3.47;;;2.70;;
52188;SDS011;38162;45.926;13.608;2023-05-07T09:29:20;5.70;;;2.63;;
52188;SDS011;38162;45.926;13.608;2023-05-07T09:31:46;6.03;;;2.63;;
52188;SDS011;38162;45.926;13.608;2023-05-07T09:34:11;2.88;;;2.22;;
52188;SDS011;38162;45.926;13.608;2023-05-07T09:36:37;4.32;;;2.03;;
52188;SDS011;38162;45.926;13.608;2023-05-07T09:39:03;5.22;;;2.45;;
52188;SDS011;38162;45.926;13.608;2023-05-07T09:41:29;3.53;;;2.50;;
52188;SDS011;38162;45.926;13.608;2023-05-07T09:43:57;4.78;;;2.33;;
52188;SDS011;38162;45.926;13.608;2023-05-07T09:46:26;25.27;;;3.15;;
52188;SDS011;38162;45.926;13.608;2023-05-07T09:48:56;3.92;;;2.15;;
52188;SDS011;38162;45.926;13.608;2023-05-07T09:51:43;5.55;;;2.60;;
52188;SDS011;38162;45.926;13.608;2023-05-07T09:54:13;3.88;;;2.88;;
52188;SDS011;38162;45.926;13.608;2023-05-07T09:56:39;4.32;;;2.70;;
52188;SDS011;38162;45.926;13.608;2023-05-07T09:59:08;4.25;;;2.58;;
52188;SDS011;38162;45.926;13.608;2023-05-07T10:01:38;7.45;;;2.70;;
52188;SDS011;38162;45.926;13.608;2023-05-07T10:04:05;3.25;;;1.90;;
52188;SDS011;38162;45.926;13.608;2023-05-07T10:06:34;3.20;;;1.95;;
52188;SDS011;38162;45.926;13.608;2023-05-07T10:09:00;8.00;;;1.70;;
52188;SDS011;38162;45.926;13.608;2023-05-07T10:11:27;2.28;;;1.40;;
52188;SDS011;38162;45.926;13.608;2023-05-07T10:13:56;4.53;;;1.52;;
52188;SDS011;38162;45.926;13.608;2023-05-07T10:17:05;2.92;;;1.60;;
52188;SDS011;38162;45.926;13.608;2023-05-07T10:25:56;2.40;;;1.40;;
52188;SDS011;38162;45.926;13.608;2023-05-07T10:34:54;3.53;;;1.60;;
52188;SDS011;38162;45.926;13.608;2023-05-07T10:37:53;3.55;;;1.70;;
52188;SDS011;38162;45.926;13.608;2023-05-07T10:40:22;4.03;;;1.88;;
52188;SDS011;38162;45.926;13.608;2023-05-07T10:42:58;2.10;;;1.58;;
52188;SDS011;38162;45.926;13.608;2023-05-07T10:45:25;5.10;;;2.42;;
52188;SDS011;38162;45.926;13.608;2023-05-07T10:48:07;4.93;;;2.00;;
52188;SDS011;38162;45.926;13.608;2023-05-07T10:50:41;8.43;;;3.00;;
52188;SDS011;38162;45.926;13.608;2023-05-07T10:55:46;3.10;;;1.75;;
52188;SDS011;38162;45.926;13.608;2023-05-07T10:58:27;4.72;;;2.20;;
52188;SDS011;38162;45.926;13.608;2023-05-07T11:00:57;5.43;;;2.00;;
52188;SDS011;38162;45.926;13.608;2023-05-07T11:03:24;4.25;;;2.05;;
52188;SDS011;38162;45.926;13.608;2023-05-07T11:08:57;3.85;;;1.98;;
52188;SDS011;38162;45.926;13.608;2023-05-07T11:14:13;2.95;;;2.35;;
52188;SDS011;38162;45.926;13.608;2023-05-07T11:16:40;5.75;;;1.73;;
52188;SDS011;38162;45.926;13.608;2023-05-07T11:19:08;3.67;;;2.20;;
52188;SDS011;38162;45.926;13.608;2023-05-07T11:24:09;4.45;;;2.05;;
52188;SDS011;38162;45.926;13.608;2023-05-07T11:26:42;2.67;;;1.50;;
52188;SDS011;38162;45.926;13.608;2023-05-07T11:29:14;2.92;;;1.98;;
52188;SDS011;38162;45.926;13.608;2023-05-07T11:31:48;3.05;;;1.73;;
52188;SDS011;38162;45.926;13.608;2023-05-07T11:34:15;3.00;;;1.60;;
52188;SDS011;38162;45.926;13.608;2023-05-07T11:36:45;9.93;;;1.73;;
52188;SDS011;38162;45.926;13.608;2023-05-07T11:39:30;1.77;;;1.60;;
52188;SDS011;38162;45.926;13.608;2023-05-07T11:41:59;3.05;;;1.60;;
52188;SDS011;38162;45.926;13.608;2023-05-07T11:44:25;4.63;;;1.83;;
52188;SDS011;38162;45.926;13.608;2023-05-07T11:47:04;3.75;;;1.80;;
52188;SDS011;38162;45.926;13.608;2023-05-07T11:49:31;3.88;;;1.40;;
52188;SDS011;38162;45.926;13.608;2023-05-07T11:51:56;4.68;;;2.00;;
52188;SDS011;38162;45.926;13.608;2023-05-07T11:54:22;1.95;;;1.60;;
52188;SDS011;38162;45.926;13.608;2023-05-07T11:56:51;2.05;;;1.30;;
52188;SDS011;38162;45.926;13.608;2023-05-07T11:59:24;2.70;;;1.40;;
52188;SDS011;38162;45.926;13.608;2023-05-07T12:05:31;2.65;;;1.50;;
52188;SDS011;38162;45.926;13.608;2023-05-07T12:08:13;1.40;;;1.30;;
52188;SDS011;38162;45.926;13.608;2023-05-07T12:11:00;2.85;;;1.60;;
52188;SDS011;38162;45.926;13.608;2023-05-07T12:19:19;4.32;;;1.40;;
52188;SDS011;38162;45.926;13.608;2023-05-07T12:24:48;3.97;;;1.65;;
52188;SDS011;38162;45.926;13.608;2023-05-07T12:27:21;4.18;;;1.70;;
52188;SDS011;38162;45.926;13.608;2023-05-07T12:29:48;2.58;;;1.67;;
52188;SDS011;38162;45.926;13.608;2023-05-07T12:32:15;3.20;;;1.60;;
52188;SDS011;38162;45.926;13.608;2023-05-07T12:34:43;2.70;;;1.80;;
52188;SDS011;38162;45.926;13.608;2023-05-07T12:37:09;2.72;;;1.88;;
52188;SDS011;38162;45.926;13.608;2023-05-07T12:39:35;6.57;;;1.95;;
52188;SDS011;38162;45.926;13.608;2023-05-07T12:42:01;2.42;;;1.80;;
52188;SDS011;38162;45.926;13.608;2023-05-07T12:44:30;2.90;;;1.40;;
52188;SDS011;38162;45.926;13.608;2023-05-07T12:46:58;2.92;;;1.83;;
52188;SDS011;38162;45.926;13.608;2023-05-07T12:49:26;4.18;;;1.73;;
52188;SDS011;38162;45.926;13.608;2023-05-07T12:51:52;3.72;;;1.80;;
52188;SDS011;38162;45.926;13.608;2023-05-07T12:54:31;2.85;;;2.25;;
52188;SDS011;38162;45.926;13.608;2023-05-07T12:57:04;3.65;;;2.08;;
52188;SDS011;38162;45.926;13.608;2023-05-07T12:59:37;2.97;;;2.10;;
52188;SDS011;38162;45.926;13.608;2023-05-07T13:02:05;3.20;;;2.10;;
52188;SDS011;38162;45.926;13.608;2023-05-07T13:04:31;3.00;;;2.20;;
52188;SDS011;38162;45.926;13.608;2023-05-07T13:06:58;3.97;;;2.50;;
52188;SDS011;38162;45.926;13.608;2023-05-07T13:09:24;2.45;;;1.90;;
52188;SDS011;38162;45.926;13.608;2023-05-07T13:11:50;5.75;;;2.30;;
52188;SDS011;38162;45.926;13.608;2023-05-07T13:14:16;2.60;;;2.10;;
52188;SDS011;38162;45.926;13.608;2023-05-07T13:16:42;5.80;;;2.30;;
52188;SDS011;38162;45.926;13.608;2023-05-07T13:19:08;5.20;;;2.10;;
52188;SDS011;38162;45.926;13.608;2023-05-07T13:21:33;5.10;;;2.40;;
52188;SDS011;38162;45.926;13.608;2023-05-07T13:23:59;3.67;;;2.40;;
52188;SDS011;38162;45.926;13.608;2023-05-07T13:26:25;2.78;;;2.25;;
52188;SDS011;38162;45.926;13.608;2023-05-07T13:28:52;2.25;;;2.05;;
52188;SDS011;38162;45.926;13.608;2023-05-07T13:31:20;2.42;;;2.00;;
52188;SDS011;38162;45.926;13.608;2023-05-07T13:33:46;4.85;;;2.30;;
52188;SDS011;38162;45.926;13.608;2023-05-07T13:36:12;9.88;;;3.15;;
52188;SDS011;38162;45.926;13.608;2023-05-07T13:38:39;5.72;;;3.00;;
52188;SDS011;38162;45.926;13.608;2023-05-07T13:41:14;6.68;;;3.10;;
52188;SDS011;38162;45.926;13.608;2023-05-07T13:54:46;5.53;;;3.45;;
52188;SDS011;38162;45.926;13.608;2023-05-07T13:57:53;3.45;;;3.05;;
52188;SDS011;38162;45.926;13.608;2023-05-07T14:00:47;5.05;;;3.85;;
52188;SDS011;38162;45.926;13.608;2023-05-07T14:03:18;7.10;;;4.13;;
52188;SDS011;38162;45.926;13.608;2023-05-07T14:06:21;5.20;;;3.78;;
52188;SDS011;38162;45.926;13.608;2023-05-07T14:09:06;5.97;;;3.90;;
52188;SDS011;38162;45.926;13.608;2023-05-07T14:11:33;5.18;;;4.13;;
52188;SDS011;38162;45.926;13.608;2023-05-07T14:13:58;9.25;;;3.90;;
52188;SDS011;38162;45.926;13.608;2023-05-07T14:16:24;5.63;;;3.67;;
52188;SDS011;38162;45.926;13.608;2023-05-07T14:18:50;7.18;;;3.75;;
52188;SDS011;38162;45.926;13.608;2023-05-07T14:21:16;4.85;;;3.78;;
52188;SDS011;38162;45.926;13.608;2023-05-07T14:23:42;4.30;;;3.88;;
52188;SDS011;38162;45.926;13.608;2023-05-07T14:26:07;4.38;;;3.50;;
52188;SDS011;38162;45.926;13.608;2023-05-07T14:28:33;6.35;;;3.40;;
52188;SDS011;38162;45.926;13.608;2023-05-07T14:30:59;5.90;;;2.95;;
52188;SDS011;38162;45.926;13.608;2023-05-07T14:33:25;4.32;;;2.80;;
52188;SDS011;38162;45.926;13.608;2023-05-07T14:35:50;5.63;;;2.90;;
52188;SDS011;38162;45.926;13.608;2023-05-07T14:38:16;4.03;;;3.35;;
52188;SDS011;38162;45.926;13.608;2023-05-07T14:40:42;6.22;;;2.80;;
52188;SDS011;38162;45.926;13.608;2023-05-07T14:43:08;3.85;;;2.80;;
52188;SDS011;38162;45.926;13.608;2023-05-07T14:45:33;6.07;;;3.10;;
52188;SDS011;38162;45.926;13.608;2023-05-07T14:47:59;9.05;;;2.90;;
52188;SDS011;38162;45.926;13.608;2023-05-07T14:50:25;3.20;;;2.88;;
52188;SDS011;38162;45.926;13.608;2023-05-07T14:52:51;6.05;;;3.00;;
52188;SDS011;38162;45.926;13.608;2023-05-07T14:55:16;2.85;;;2.47;;
52188;SDS011;38162;45.926;13.608;2023-05-07T14:57:42;3.33;;;2.67;;
52188;SDS011;38162;45.926;13.608;2023-05-07T15:00:08;3.55;;;2.67;;
52188;SDS011;38162;45.926;13.608;2023-05-07T15:02:34;3.42;;;2.50;;
52188;SDS011;38162;45.926;13.608;2023-05-07T15:05:00;8.13;;;3.08;;
52188;SDS011;38162;45.926;13.608;2023-05-07T15:07:26;4.50;;;2.40;;
52188;SDS011;38162;45.926;13.608;2023-05-07T15:09:52;3.60;;;2.80;;
52188;SDS011;38162;45.926;13.608;2023-05-07T15:12:18;4.50;;;2.80;;
52188;SDS011;38162;45.926;13.608;2023-05-07T15:14:44;4.53;;;2.85;;
52188;SDS011;38162;45.926;13.608;2023-05-07T15:17:10;4.10;;;2.92;;
52188;SDS011;38162;45.926;13.608;2023-05-07T15:19:35;5.53;;;2.88;;
52188;SDS011;38162;45.926;13.608;2023-05-07T15:22:01;5.30;;;2.90;;
52188;SDS011;38162;45.926;13.608;2023-05-07T15:24:30;3.35;;;2.78;;
52188;SDS011;38162;45.926;13.608;2023-05-07T15:27:20;10.25;;;3.10;;
52188;SDS011;38162;45.926;13.608;2023-05-07T15:29:48;6.55;;;3.13;;
52188;SDS011;38162;45.926;13.608;2023-05-07T15:32:18;4.47;;;3.17;;
52188;SDS011;38162;45.926;13.608;2023-05-07T15:34:50;4.85;;;2.97;;
52188;SDS011;38162;45.926;13.608;2023-05-07T15:37:16;3.42;;;2.72;;
52188;SDS011;38162;45.926;13.608;2023-05-07T15:39:42;4.00;;;3.15;;
52188;SDS011;38162;45.926;13.608;2023-05-07T15:45:10;5.20;;;3.00;;
52188;SDS011;38162;45.926;13.608;2023-05-07T15:47:42;5.07;;;3.20;;
52188;SDS011;38162;45.926;13.608;2023-05-07T15:50:09;8.15;;;3.08;;
52188;SDS011;38162;45.926;13.608;2023-05-07T15:52:35;4.57;;;2.70;;
52188;SDS011;38162;45.926;13.608;2023-05-07T15:55:01;4.28;;;3.00;;
52188;SDS011;38162;45.926;13.608;2023-05-07T15:57:27;5.20;;;3.20;;
52188;SDS011;38162;45.926;13.608;2023-05-07T15:59:53;4.72;;;2.88;;
52188;SDS011;38162;45.926;13.608;2023-05-07T16:02:19;4.45;;;2.95;;
52188;SDS011;38162;45.926;13.608;2023-05-07T16:04:45;3.97;;;3.05;;
52188;SDS011;38162;45.926;13.608;2023-05-07T16:07:11;3.75;;;3.00;;
52188;SDS011;38162;45.926;13.608;2023-05-07T16:09:37;6.35;;;3.00;;
52188;SDS011;38162;45.926;13.608;2023-05-07T16:12:03;3.58;;;3.08;;
52188;SDS011;38162;45.926;13.608;2023-05-07T16:14:29;4.55;;;2.95;;
52188;SDS011;38162;45.926;13.608;2023-05-07T16:16:55;9.15;;;3.70;;
52188;SDS011;38162;45.926;13.608;2023-05-07T16:19:20;4.18;;;3.20;;
52188;SDS011;38162;45.926;13.608;2023-05-07T16:21:48;5.30;;;3.50;;
52188;SDS011;38162;45.926;13.608;2023-05-07T16:24:14;6.28;;;3.17;;
52188;SDS011;38162;45.926;13.608;2023-05-07T16:26:40;4.72;;;3.08;;
52188;SDS011;38162;45.926;13.608;2023-05-07T16:29:06;7.05;;;3.63;;
52188;SDS011;38162;45.926;13.608;2023-05-07T16:31:32;6.60;;;3.40;;
52188;SDS011;38162;45.926;13.608;2023-05-07T16:33:58;3.70;;;3.20;;
52188;SDS011;38162;45.926;13.608;2023-05-07T16:36:27;3.58;;;2.75;;